Time;durP1;ratioP1;P1;durP2;ratioP2;P2;SDS_P1;SDS_P2;PMS_P1;PMS_P2;Temp;Humidity;BMP_temperature;BMP_pressure;BME280_temperature;BME280_humidity;BME280_pressure;Samples;Min_cycle;Max_cycle;Signal;HPM_P1;HPM_P2
2022/07/14 00:00:10;;;;;;;1.73;0.80;;;;;;;23.81;39.44;99740.25;342544;28;1856;-75
2022/07/14 00:00:22;;;;;;;2.60;0.90;;;;;;;23.79;39.83;99732.41;341808;28;1218;-73
2022/07/14 00:00:34;;;;;;;3.45;1.00;;;;;;;23.80;39.77;99734.06;341113;29;1173;-73
2022/07/14 00:00:46;;;;;;;3.65;0.98;;;;;;;23.80;39.67;99733.22;341702;28;2161;-72
2022/07/14 00:00:58;;;;;;;4.20;1.10;;;;;;;23.79;39.71;99736.88;342888;28;1910;-73
2022/07/14 00:01:10;;;;;;;5.80;1.02;;;;;;;23.79;39.55;99737.72;342647;28;1889;-73
2022/07/14 00:01:22;;;;;;;5.00;1.00;;;;;;;23.78;39.72;99741.31;343410;28;1604;-72
2022/07/14 00:01:38;;;;;;;1.20;1.00;;;;;;;23.80;39.69;99744.69;344483;28;1201;-74
2022/07/14 00:01:50;;;;;;;1.70;1.00;;;;;;;23.80;39.49;99734.06;343831;28;1755;-73
2022/07/14 00:02:02;;;;;;;2.40;1.00;;;;;;;23.79;39.70;99735.06;343015;28;1282;-73
2022/07/14 00:02:14;;;;;;;2.58;0.90;;;;;;;23.77;39.42;99739.66;343510;28;1019;-73
2022/07/14 00:02:26;;;;;;;1.70;0.80;;;;;;;23.77;39.66;99739.66;344472;28;1018;-73
2022/07/14 00:02:38;;;;;;;1.42;0.80;;;;;;;23.78;39.81;99735.19;344890;28;1098;-73
2022/07/14 00:02:50;;;;;;;1.10;0.90;;;;;;;23.77;39.50;99734.34;345126;28;1024;-72
2022/07/14 00:03:02;;;;;;;1.17;0.90;;;;;;;23.77;39.71;99734.34;344818;28;1906;-72
2022/07/14 00:03:14;;;;;;;1.15;0.90;;;;;;;23.77;39.70;99734.34;344824;28;1002;-74
2022/07/14 00:03:27;;;;;;;2.00;0.90;;;;;;;23.75;39.70;99730.94;344945;28;1047;-73
2022/07/14 00:03:39;;;;;;;2.30;0.90;;;;;;;23.75;39.64;99733.59;344177;28;1859;-74
2022/07/14 00:03:51;;;;;;;2.08;0.90;;;;;;;23.75;39.56;99736.25;345245;28;1238;-73
2022/07/14 00:04:04;;;;;;;1.33;0.85;;;;;;;23.74;39.72;99739.88;345202;28;1305;-72
2022/07/14 00:04:16;;;;;;;1.38;0.90;;;;;;;23.73;40.08;99732.91;345024;28;1071;-74
2022/07/14 00:04:29;;;;;;;1.45;1.00;;;;;;;23.71;40.08;99733.03;345287;28;1202;-73
2022/07/14 00:04:41;;;;;;;1.25;0.90;;;;;;;23.72;39.82;99736.50;345197;28;1178;-73
2022/07/14 00:04:54;;;;;;;1.08;0.80;;;;;;;23.71;39.84;99729.53;345133;28;1051;-73
2022/07/14 00:05:06;;;;;;;1.80;0.82;;;;;;;23.72;40.22;99733.84;342007;28;2014;-75
2022/07/14 00:05:18;;;;;;;2.40;1.00;;;;;;;23.72;40.50;99733.84;342574;28;1733;-73
2022/07/14 00:05:31;;;;;;;3.40;1.00;;;;;;;23.72;40.26;99736.50;343780;28;1157;-73
2022/07/14 00:05:43;;;;;;;3.67;1.00;;;;;;;23.71;40.56;99737.50;343511;28;1852;-73
2022/07/14 00:05:55;;;;;;;2.10;1.00;;;;;;;23.70;40.18;99727.84;343441;28;988;-74
2022/07/14 00:06:07;;;;;;;1.92;0.93;;;;;;;23.71;40.65;99740.16;342284;28;1052;-73
2022/07/14 00:06:19;;;;;;;2.20;1.00;;;;;;;23.69;40.56;99734.13;342121;28;1305;-73
2022/07/14 00:06:33;;;;;;;1.88;1.00;;;;;;;23.67;40.78;99739.56;342398;28;1284;-74
2022/07/14 00:06:46;;;;;;;2.55;0.90;;;;;;;23.67;40.89;99733.44;342096;28;1245;-73
2022/07/14 00:06:58;;;;;;;3.33;0.90;;;;;;;23.68;41.08;99735.09;342534;28;1208;-73
2022/07/14 00:07:11;;;;;;;3.00;0.88;;;;;;;23.69;41.23;99727.00;343490;28;2127;-73
2022/07/14 00:07:23;;;;;;;4.57;0.93;;;;;;;23.69;41.52;99734.13;341301;28;1829;-74
2022/07/14 00:07:37;;;;;;;5.10;0.93;;;;;;;23.69;41.71;99732.31;340789;28;1897;-73
2022/07/14 00:07:49;;;;;;;3.92;1.00;;;;;;;23.68;42.29;99732.44;341126;29;1171;-73
2022/07/14 00:08:02;;;;;;;1.52;0.90;;;;;;;23.66;42.23;99737.91;341621;28;1874;-73
2022/07/14 00:08:14;;;;;;;2.13;0.80;;;;;;;23.63;41.93;99737.31;341953;28;1648;-74
2022/07/14 00:08:26;;;;;;;2.83;0.80;;;;;;;23.62;42.25;99735.63;341171;28;1257;-72
2022/07/14 00:08:39;;;;;;;2.40;0.88;;;;;;;23.58;42.46;99734.22;340874;28;1670;-75
2022/07/14 00:08:51;;;;;;;2.33;0.90;;;;;;;23.58;42.20;99732.38;340842;28;1857;-74
2022/07/14 00:09:03;;;;;;;1.33;0.80;;;;;;;23.58;42.63;99736.84;340702;28;1850;-74
2022/07/14 00:09:15;;;;;;;1.98;0.82;;;;;;;23.55;43.02;99729.19;341204;28;1083;-73
2022/07/14 00:09:27;;;;;;;1.88;0.80;;;;;;;23.55;43.69;99734.47;342742;28;1142;-73
2022/07/14 00:09:39;;;;;;;1.30;0.90;;;;;;;23.51;43.35;99729.44;343683;28;1025;-72
2022/07/14 00:09:51;;;;;;;1.77;0.90;;;;;;;23.52;43.19;99736.44;344343;28;1051;-73
2022/07/14 00:10:04;;;;;;;2.30;0.93;;;;;;;23.51;43.57;99729.44;344208;28;1726;-74
2022/07/14 00:10:16;;;;;;;1.73;0.98;;;;;;;23.50;43.91;99730.41;343827;28;1643;-73
2022/07/14 00:10:28;;;;;;;2.40;0.98;;;;;;;23.50;43.86;99726.91;343632;28;1208;-73
2022/07/14 00:10:40;;;;;;;3.17;1.00;;;;;;;23.48;43.82;99735.00;343769;28;1135;-73
2022/07/14 00:10:52;;;;;;;3.33;1.00;;;;;;;23.46;44.56;99731.66;343198;28;1940;-73
2022/07/14 00:11:04;;;;;;;3.35;1.10;;;;;;;23.48;43.91;99729.72;344825;28;1631;-74
2022/07/14 00:11:17;;;;;;;3.15;1.15;;;;;;;23.49;43.58;99731.38;343985;28;2286;-74
2022/07/14 00:11:29;;;;;;;3.22;1.00;;;;;;;23.48;43.71;99729.72;344549;28;1041;-74
2022/07/14 00:11:41;;;;;;;3.05;1.00;;;;;;;23.49;44.26;99731.38;344807;28;1016;-72
2022/07/14 00:11:53;;;;;;;3.17;1.00;;;;;;;23.48;43.71;99723.53;344522;28;2070;-73
2022/07/14 00:12:05;;;;;;;2.45;1.10;;;;;;;23.45;44.01;99729.94;343889;28;2202;-73
2022/07/14 00:12:17;;;;;;;2.63;1.10;;;;;;;23.45;43.76;99729.94;343810;28;1473;-73
2022/07/14 00:12:29;;;;;;;2.80;1.00;;;;;;;23.44;44.13;99728.28;345206;28;1547;-72
2022/07/14 00:12:41;;;;;;;2.78;1.00;;;;;;;23.44;43.96;99730.94;344936;28;1114;-73
2022/07/14 00:12:53;;;;;;;2.55;0.90;;;;;;;23.43;44.29;99731.06;343897;28;1195;-73
2022/07/14 00:13:05;;;;;;;1.67;0.90;;;;;;;23.44;43.78;99733.59;342326;28;1888;-74
2022/07/14 00:13:18;;;;;;;1.70;0.90;;;;;;;23.45;43.97;99731.78;342205;28;1910;-72
2022/07/14 00:13:30;;;;;;;2.95;0.93;;;;;;;23.44;43.77;99730.06;344228;28;2047;-75
2022/07/14 00:13:42;;;;;;;2.67;0.90;;;;;;;23.44;43.76;99730.94;343479;28;1078;-74
2022/07/14 00:13:56;;;;;;;4.25;1.00;;;;;;;23.44;44.58;99733.59;343579;28;1300;-73
2022/07/14 00:14:08;;;;;;;3.63;1.00;;;;;;;23.43;44.91;99731.06;342024;28;1930;-72
2022/07/14 00:14:20;;;;;;;3.40;1.00;;;;;;;23.43;44.87;99737.19;342922;28;1643;-73
2022/07/14 00:14:32;;;;;;;3.10;1.00;;;;;;;23.41;45.12;99730.34;343401;28;1767;-73
2022/07/14 00:14:44;;;;;;;4.55;1.10;;;;;;;23.40;44.10;99740.13;343760;28;1095;-73
2022/07/14 00:14:56;;;;;;;3.10;1.00;;;;;;;23.40;43.96;99732.19;343493;28;1651;-73
2022/07/14 00:15:08;;;;;;;1.85;0.90;;;;;;;23.42;43.49;99738.19;344329;28;1803;-73
2022/07/14 00:15:21;;;;;;;1.65;0.82;;;;;;;23.44;43.57;99733.59;344953;28;1847;-73
2022/07/14 00:15:33;;;;;;;2.00;0.90;;;;;;;23.45;42.99;99732.59;344727;28;1210;-73
2022/07/14 00:15:45;;;;;;;1.98;0.90;;;;;;;23.40;43.14;99737.47;344551;28;1656;-74
2022/07/14 00:15:57;;;;;;;1.80;0.90;;;;;;;23.35;42.98;99728.22;344838;28;1714;-74
2022/07/14 00:16:09;;;;;;;3.80;0.90;;;;;;;23.30;43.29;99736.53;344164;28;1767;-74
2022/07/14 00:16:21;;;;;;;4.10;0.90;;;;;;;23.26;43.69;99735.13;342870;28;1800;-74
2022/07/14 00:16:33;;;;;;;3.65;0.90;;;;;;;23.18;43.65;99732.28;343651;28;1286;-72
2022/07/14 00:16:45;;;;;;;2.20;1.00;;;;;;;23.19;43.81;99731.31;343868;28;725;-73
2022/07/14 00:16:58;;;;;;;1.60;1.10;;;;;;;23.18;44.24;99732.28;342536;28;1825;-74
2022/07/14 00:17:10;;;;;;;2.17;1.02;;;;;;;23.18;43.99;99737.59;342826;28;1388;-73
2022/07/14 00:17:22;;;;;;;2.15;0.93;;;;;;;23.20;43.80;99735.63;342619;28;1240;-73
2022/07/14 00:17:34;;;;;;;1.55;0.80;;;;;;;23.17;43.51;99738.56;343090;28;1853;-73
2022/07/14 00:17:46;;;;;;;2.80;0.80;;;;;;;23.15;43.73;99732.56;343562;28;1224;-73
2022/07/14 00:17:59;;;;;;;2.28;0.85;;;;;;;23.17;43.53;99741.22;343019;28;1746;-73
2022/07/14 00:18:12;;;;;;;1.52;1.13;;;;;;;23.11;43.92;99737.25;342290;28;1916;-73
2022/07/14 00:18:24;;;;;;;1.40;1.20;;;;;;;23.11;43.19;99738.09;343963;28;1816;-73
2022/07/14 00:18:43;;;;;;;2.67;0.95;;;;;;;23.12;44.05;99737.16;345213;28;1106;-73
2022/07/14 00:18:55;;;;;;;3.85;0.80;;;;;;;23.12;44.27;99731.84;343916;28;1048;-74
2022/07/14 00:19:08;;;;;;;2.53;0.80;;;;;;;23.11;44.15;99735.44;343100;28;2367;-73
2022/07/14 00:19:20;;;;;;;1.42;0.85;;;;;;;23.15;44.73;99743.16;344017;28;1826;-73
2022/07/14 00:19:32;;;;;;;3.00;0.90;;;;;;;23.15;44.88;99737.84;344952;28;1735;-75
2022/07/14 00:19:44;;;;;;;3.53;1.00;;;;;;;23.16;44.92;99739.53;343954;28;1486;-73
2022/07/14 00:19:56;;;;;;;3.60;0.90;;;;;;;23.15;45.26;99738.69;344851;28;1360;-73
2022/07/14 00:20:08;;;;;;;2.60;0.98;;;;;;;23.11;45.25;99743.41;344150;28;1840;-73
2022/07/14 00:20:21;;;;;;;3.22;0.90;;;;;;;23.12;45.54;99739.78;343954;28;1965;-73
2022/07/14 00:20:33;;;;;;;2.90;0.90;;;;;;;23.12;44.96;99742.44;343846;28;1106;-73
2022/07/14 00:20:45;;;;;;;2.10;0.90;;;;;;;23.15;44.76;99743.16;343766;28;1057;-73
2022/07/14 00:20:57;;;;;;;1.98;0.90;;;;;;;23.15;44.38;99743.16;344763;28;1297;-73
2022/07/14 00:21:13;;;;;;;2.05;0.80;;;;;;;23.17;44.60;99735.91;344390;28;1943;-73
2022/07/14 00:21:25;;;;;;;2.35;0.82;;;;;;;23.18;44.17;99740.22;343281;28;1929;-74
2022/07/14 00:21:37;;;;;;;1.25;0.90;;;;;;;23.19;44.14;99733.97;343482;28;1810;-73
2022/07/14 00:21:49;;;;;;;1.75;1.00;;;;;;;23.17;43.74;99731.44;343845;28;2957;-73
2022/07/14 00:22:01;;;;;;;2.85;0.90;;;;;;;23.16;43.71;99739.53;344476;28;1233;-74
2022/07/14 00:22:13;;;;;;;3.92;0.93;;;;;;;23.13;44.46;99741.47;344016;28;2089;-74
2022/07/14 00:22:25;;;;;;;2.20;0.90;;;;;;;23.12;43.97;99739.78;344949;28;1931;-73
2022/07/14 00:22:40;;;;;;;1.65;0.90;;;;;;;23.13;44.30;99736.16;344733;28;1297;-73
2022/07/14 00:22:53;;;;;;;1.17;0.90;;;;;;;23.11;44.24;99730.16;344203;28;1867;-73
2022/07/14 00:23:05;;;;;;;2.10;0.93;;;;;;;23.10;45.06;99735.56;343353;28;1815;-74
2022/07/14 00:23:21;;;;;;;3.60;0.93;;;;;;;23.08;46.05;99742.81;344824;28;1718;-73
2022/07/14 00:23:33;;;;;;;3.08;0.90;;;;;;;23.08;45.68;99743.69;343868;28;1747;-73
2022/07/14 00:23:46;;;;;;;2.95;0.90;;;;;;;23.06;46.48;99740.31;344384;28;1880;-73
2022/07/14 00:23:58;;;;;;;4.20;0.93;;;;;;;23.06;45.88;99742.97;345241;28;1254;-73
2022/07/14 00:24:11;;;;;;;4.53;1.00;;;;;;;23.06;45.51;99732.34;343803;28;1649;-73
2022/07/14 00:24:23;;;;;;;2.50;0.90;;;;;;;23.01;45.83;99737.16;344836;28;1834;-73
2022/07/14 00:24:36;;;;;;;2.17;0.90;;;;;;;23.02;45.58;99744.19;344806;28;1035;-73
2022/07/14 00:24:48;;;;;;;0.80;0.80;;;;;;;23.01;46.51;99736.31;345209;28;1201;-73
2022/07/14 00:25:00;;;;;;;1.30;0.85;;;;;;;22.96;46.73;99739.38;345072;28;1261;-73
2022/07/14 00:25:12;;;;;;;1.50;0.90;;;;;;;22.96;46.58;99743.81;343813;28;1933;-73
2022/07/14 00:25:25;;;;;;;2.05;0.90;;;;;;;22.94;46.76;99741.31;344329;28;1823;-74
2022/07/14 00:25:37;;;;;;;2.83;0.95;;;;;;;;;;343282;28;872;-73
2022/07/14 00:25:49;;;;;;;2.17;1.00;;;;;;;22.95;46.40;99732.38;343839;28;1046;-73
2022/07/14 00:26:03;;;;;;;1.77;1.00;;;;;;;22.95;46.18;99742.97;344395;28;1328;-72
2022/07/14 00:26:15;;;;;;;1.67;0.95;;;;;;;22.93;47.13;99739.59;344847;28;1745;-73
2022/07/14 00:26:27;;;;;;;1.67;0.85;;;;;;;22.92;46.79;99737.94;344636;28;1084;-74
2022/07/14 00:26:40;;;;;;;2.08;0.90;;;;;;;22.90;47.33;99738.06;343533;28;1075;-73
2022/07/14 00:26:52;;;;;;;3.47;0.98;;;;;;;22.90;46.94;99738.06;343204;28;1249;-74
2022/07/14 00:27:04;;;;;;;4.60;0.95;;;;;;;22.91;46.46;99733.59;343224;28;1477;-74
2022/07/14 00:27:16;;;;;;;4.85;1.00;;;;;;;22.92;46.49;99735.28;343392;28;1105;-73
2022/07/14 00:27:28;;;;;;;2.53;1.00;;;;;;;22.93;46.17;99739.59;342477;28;1258;-74
2022/07/14 00:27:40;;;;;;;2.03;1.00;;;;;;;22.92;46.12;99741.41;342935;28;1538;-74
2022/07/14 00:27:53;;;;;;;1.52;1.00;;;;;;;22.91;45.86;99736.25;342835;28;1948;-74
2022/07/14 00:28:05;;;;;;;2.25;1.00;;;;;;;22.89;45.84;99733.72;343349;28;1278;-73
2022/07/14 00:28:17;;;;;;;2.20;1.10;;;;;;;22.87;46.15;99732.16;343327;28;1565;-72
2022/07/14 00:28:29;;;;;;;2.42;1.10;;;;;;;22.85;46.18;99739.41;342290;28;1925;-74
2022/07/14 00:28:41;;;;;;;2.30;1.00;;;;;;;22.83;46.57;99739.50;343327;28;1931;-74
2022/07/14 00:28:53;;;;;;;2.25;1.00;;;;;;;22.80;46.68;99733.63;343658;28;1113;-74
2022/07/14 00:29:06;;;;;;;2.28;1.00;;;;;;;22.78;47.13;99738.22;343424;28;1850;-74
2022/07/14 00:29:18;;;;;;;1.83;1.00;;;;;;;22.78;46.80;99736.44;343002;28;1771;-73
2022/07/14 00:29:30;;;;;;;1.75;1.05;;;;;;;22.77;47.07;99736.53;342333;28;1008;-73
2022/07/14 00:29:42;;;;;;;1.75;1.10;;;;;;;22.77;47.10;99744.50;341812;28;1934;-74
2022/07/14 00:29:54;;;;;;;1.80;1.10;;;;;;;22.74;46.71;99735.81;343302;28;1699;-73
2022/07/14 00:30:07;;;;;;;1.23;0.88;;;;;;;22.76;46.80;99740.13;342749;28;1467;-74
2022/07/14 00:30:20;;;;;;;1.33;0.80;;;;;;;22.74;47.18;99740.28;342858;28;1792;-72
2022/07/14 00:30:32;;;;;;;1.67;0.93;;;;;;;22.74;47.79;99746.44;343539;28;1157;-73
2022/07/14 00:30:45;;;;;;;2.72;1.00;;;;;;;22.72;47.30;99737.75;343505;28;1074;-73
2022/07/14 00:30:58;;;;;;;3.22;1.00;;;;;;;22.71;47.78;99736.06;342332;28;1793;-73
2022/07/14 00:31:11;;;;;;;3.28;1.10;;;;;;;22.72;48.33;99736.94;342910;28;1944;-73
2022/07/14 00:31:23;;;;;;;2.28;1.10;;;;;;;22.71;48.41;99744.00;343864;28;2048;-73
2022/07/14 00:31:36;;;;;;;2.95;1.00;;;;;;;22.71;48.41;99738.72;344657;28;1607;-73
2022/07/14 00:31:48;;;;;;;2.42;0.90;;;;;;;22.70;47.82;99739.69;344647;28;1261;-73
2022/07/14 00:32:00;;;;;;;2.88;1.00;;;;;;;22.71;47.79;99740.53;344427;28;1404;-73
2022/07/14 00:32:12;;;;;;;2.60;1.00;;;;;;;22.72;47.44;99737.75;344321;28;1996;-73
2022/07/14 00:32:25;;;;;;;3.72;1.05;;;;;;;22.72;48.12;99732.47;344147;28;1925;-72
2022/07/14 00:32:37;;;;;;;4.72;1.10;;;;;;;22.72;47.90;99743.06;343553;28;1043;-73
2022/07/14 00:32:49;;;;;;;4.68;1.10;;;;;;;22.71;48.42;99733.41;343698;28;1079;-73
2022/07/14 00:33:01;;;;;;;1.98;1.00;;;;;;;22.70;48.28;99728.25;344545;28;1250;-73
2022/07/14 00:33:14;;;;;;;1.73;1.00;;;;;;;22.68;48.58;99736.34;344279;28;1785;-73
2022/07/14 00:33:26;;;;;;;2.13;1.15;;;;;;;22.67;48.50;99736.44;343599;28;1099;-73
2022/07/14 00:33:39;;;;;;;2.05;1.10;;;;;;;22.67;48.52;99742.59;343855;28;1201;-73
2022/07/14 00:33:51;;;;;;;2.28;1.00;;;;;;;22.69;48.55;99732.69;343817;28;1922;-73
2022/07/14 00:34:03;;;;;;;1.70;0.90;;;;;;;22.66;48.94;99734.78;344665;28;1739;-73
2022/07/14 00:34:15;;;;;;;1.50;1.00;;;;;;;22.64;48.73;99734.91;344432;28;1748;-73
2022/07/14 00:34:27;;;;;;;1.52;1.10;;;;;;;22.64;48.56;99734.91;344616;28;1047;-73
2022/07/14 00:34:39;;;;;;;2.80;1.23;;;;;;;22.64;48.14;99734.91;344500;28;1567;-73
2022/07/14 00:34:50;;;;;;;3.28;1.20;;;;;;;22.64;48.43;99739.38;344960;28;1022;-73
2022/07/14 00:35:05;;;;;;;3.63;1.15;;;;;;;22.63;48.20;99727.91;342998;28;1731;-75
2022/07/14 00:35:17;;;;;;;4.93;1.20;;;;;;;22.64;48.07;99734.06;343325;28;1544;-73
2022/07/14 00:35:29;;;;;;;7.05;1.20;;;;;;;22.64;47.75;99734.91;343699;28;1204;-73
2022/07/14 00:35:41;;;;;;;5.38;1.10;;;;;;;22.65;47.49;99731.28;342974;28;1996;-73
2022/07/14 00:35:54;;;;;;;4.30;1.05;;;;;;;22.64;47.62;99734.91;343282;28;1747;-74
2022/07/14 00:36:07;;;;;;;1.70;1.00;;;;;;;22.63;47.74;99733.19;342729;28;1842;-73
2022/07/14 00:36:19;;;;;;;2.58;1.13;;;;;;;22.63;47.72;99733.19;342457;28;1792;-73
2022/07/14 00:36:32;;;;;;;2.20;1.10;;;;;;;22.63;47.30;99732.38;343614;28;1031;-73
2022/07/14 00:36:45;;;;;;;2.05;1.08;;;;;;;22.63;47.55;99733.19;342284;28;1861;-74
2022/07/14 00:36:57;;;;;;;3.10;1.20;;;;;;;22.61;48.13;99735.13;343564;28;1363;-73
2022/07/14 00:37:09;;;;;;;2.88;1.10;;;;;;;22.56;48.94;99737.34;344645;28;1023;-72
2022/07/14 00:37:20;;;;;;;2.60;1.02;;;;;;;22.56;48.36;99732.03;345017;28;1043;-74
2022/07/14 00:37:32;;;;;;;2.60;1.00;;;;;;;22.54;48.31;99734.81;345060;28;1037;-73
2022/07/14 00:37:44;;;;;;;2.28;1.10;;;;;;;22.52;48.28;99735.91;345274;28;1082;-73
2022/07/14 00:37:56;;;;;;;1.63;1.02;;;;;;;22.51;48.13;99735.03;344981;28;1348;-73
2022/07/14 00:38:08;;;;;;;2.05;1.00;;;;;;;22.48;48.78;99735.31;344161;28;1917;-74
2022/07/14 00:38:20;;;;;;;2.65;1.00;;;;;;;22.50;48.30;99727.25;343252;28;1655;-73
2022/07/14 00:38:33;;;;;;;3.80;1.00;;;;;;;22.52;47.62;99735.91;343965;28;1144;-73
2022/07/14 00:38:45;;;;;;;3.08;1.00;;;;;;;22.52;47.66;99735.91;343555;28;1143;-73
2022/07/14 00:38:57;;;;;;;4.10;1.00;;;;;;;22.52;47.55;99727.97;343816;28;1269;-73
2022/07/14 00:39:09;;;;;;;3.67;1.10;;;;;;;22.50;47.86;99737.84;343886;28;1878;-74
2022/07/14 00:39:21;;;;;;;2.92;1.02;;;;;;;22.47;48.40;99733.59;344221;28;1939;-74
2022/07/14 00:40:05;;;;;;;2.33;1.20;;;;;;;22.45;49.03;99729.41;343406;28;1776;-74
2022/07/14 00:40:17;;;;;;;2.22;1.30;;;;;;;22.42;49.04;99735.81;342002;28;1736;-72
2022/07/14 00:40:29;;;;;;;1.40;1.20;;;;;;;22.41;48.88;99734.09;342310;28;1099;-73
2022/07/14 00:40:42;;;;;;;1.23;0.93;;;;;;;22.39;49.46;99730.72;342174;28;1023;-73
2022/07/14 00:40:54;;;;;;;2.03;0.93;;;;;;;22.37;48.56;99726.53;342373;28;1180;-73
2022/07/14 00:41:06;;;;;;;3.88;1.10;;;;;;;22.34;48.37;99733.75;341810;28;1931;-73
2022/07/14 00:41:19;;;;;;;5.00;1.20;;;;;;;22.34;48.38;99731.13;341665;28;1868;-74
2022/07/14 00:41:31;;;;;;;2.83;1.10;;;;;;;22.32;48.07;99727.75;341895;28;1336;-74
2022/07/14 00:41:43;;;;;;;1.30;0.95;;;;;;;22.30;48.00;99731.50;343606;28;1174;-74
2022/07/14 00:41:55;;;;;;;1.45;1.00;;;;;;;22.30;48.45;99734.97;342807;28;2120;-73
2022/07/14 00:42:07;;;;;;;2.78;1.10;;;;;;;22.31;48.16;99731.34;341359;28;1903;-73
2022/07/14 00:42:30;;;;;;;3.58;1.10;;;;;;;22.29;49.36;99730.63;343650;28;1710;-73
2022/07/14 00:42:47;;;;;;;2.35;1.08;;;;;;;22.28;49.90;99731.59;344829;28;1230;-72
2022/07/14 00:42:59;;;;;;;1.98;1.30;;;;;;;22.28;49.97;99728.97;344760;28;1636;-72
2022/07/14 00:43:11;;;;;;;1.77;1.20;;;;;;;22.29;49.51;99730.63;343458;28;1262;-73
2022/07/14 00:43:23;;;;;;;2.17;0.90;;;;;;;22.30;49.07;99727.03;343804;28;1057;-73
2022/07/14 00:43:35;;;;;;;2.97;0.90;;;;;;;22.31;48.64;99726.06;342291;28;1075;-73
2022/07/14 00:43:47;;;;;;;2.95;0.90;;;;;;;22.31;48.69;99726.06;341608;28;1882;-75
2022/07/14 00:44:00;;;;;;;2.22;0.90;;;;;;;22.31;48.95;99734.00;342074;28;1283;-74
2022/07/14 00:44:12;;;;;;;2.25;0.95;;;;;;;22.30;49.37;99732.31;340861;28;1789;-73
2022/07/14 00:44:24;;;;;;;2.10;0.98;;;;;;;22.28;48.90;99723.66;341908;28;1939;-73
2022/07/14 00:44:36;;;;;;;2.28;1.00;;;;;;;22.29;48.52;99730.63;342509;28;1156;-73
2022/07/14 00:44:48;;;;;;;2.30;1.00;;;;;;;22.26;48.76;99725.59;342323;28;1243;-73
2022/07/14 00:45:08;;;;;;;2.33;1.05;;;;;;;22.25;48.88;99723.06;341528;28;1310;-73
2022/07/14 00:45:21;;;;;;;1.38;1.00;;;;;;;22.23;49.49;99725.78;342287;28;2155;-73
2022/07/14 00:45:33;;;;;;;1.67;1.02;;;;;;;22.22;49.69;99728.59;343126;28;1701;-72
2022/07/14 00:45:45;;;;;;;2.95;1.08;;;;;;;22.20;50.38;99731.34;344678;28;1810;-73
2022/07/14 00:45:57;;;;;;;2.95;1.10;;;;;;;22.18;50.34;99722.69;345088;28;1253;-72
2022/07/14 00:46:10;;;;;;;1.60;1.20;;;;;;;22.17;50.57;99726.28;343820;28;1799;-74
2022/07/14 00:46:22;;;;;;;2.70;1.30;;;;;;;22.16;50.40;99724.63;343815;28;1436;-73
2022/07/14 00:46:37;;;;;;;3.05;1.10;;;;;;;22.17;49.48;99723.63;344451;28;1662;-73
2022/07/14 00:46:49;;;;;;;2.40;1.05;;;;;;;22.18;49.60;99727.16;343511;28;1014;-73
2022/07/14 00:47:01;;;;;;;2.85;1.05;;;;;;;22.19;49.07;99724.34;344117;28;1301;-73
2022/07/14 00:47:12;;;;;;;3.78;1.00;;;;;;;22.18;50.12;99722.69;344717;28;1075;-74
2022/07/14 00:47:24;;;;;;;3.28;1.00;;;;;;;22.16;49.57;99719.31;344954;28;1038;-74
2022/07/14 00:47:37;;;;;;;2.50;0.90;;;;;;;22.16;49.41;99719.31;343743;28;2074;-75
2022/07/14 00:47:49;;;;;;;1.63;0.98;;;;;;;22.18;48.70;99730.63;344566;28;1271;-74
2022/07/14 00:48:01;;;;;;;1.48;1.00;;;;;;;22.17;49.37;99730.75;344913;28;1205;-74
2022/07/14 00:48:14;;;;;;;1.65;1.08;;;;;;;22.15;50.15;99722.91;343968;28;2202;-74
2022/07/14 00:48:27;;;;;;;2.03;1.10;;;;;;;22.13;49.77;99720.41;344681;28;1654;-73
2022/07/14 00:48:39;;;;;;;2.05;1.10;;;;;;;22.12;49.85;99728.47;344028;28;1581;-74
2022/07/14 00:48:51;;;;;;;2.15;1.10;;;;;;;22.09;50.07;99718.13;345090;28;1644;-73
2022/07/14 00:49:03;;;;;;;1.75;1.05;;;;;;;22.07;50.15;99720.03;344938;28;1248;-73
2022/07/14 00:49:34;;;;;;;1.85;1.17;;;;;;;22.07;50.25;99725.34;344618;28;1726;-73
2022/07/14 00:49:46;;;;;;;2.28;1.10;;;;;;;22.07;50.01;99725.34;344975;28;1047;-72
2022/07/14 00:49:58;;;;;;;1.50;1.13;;;;;;;22.07;50.05;99725.34;345110;28;1246;-72
2022/07/14 00:50:12;;;;;;;1.65;1.15;;;;;;;22.06;50.50;99723.66;343898;28;1848;-73
2022/07/14 00:50:24;;;;;;;2.45;1.00;;;;;;;22.04;50.21;99726.44;341939;28;1896;-73
2022/07/14 00:50:41;;;;;;;4.15;1.10;;;;;;;22.05;50.02;99725.44;340819;29;1089;-74
2022/07/14 00:50:53;;;;;;;4.10;1.25;;;;;;;22.06;49.25;99728.97;341107;29;1173;-72
2022/07/14 00:51:05;;;;;;;3.42;1.13;;;;;;;22.06;49.45;99723.66;341498;28;1841;-74
2022/07/14 00:51:18;;;;;;;4.30;1.02;;;;;;;22.07;49.45;99725.34;341158;28;1630;-72
2022/07/14 00:51:30;;;;;;;4.22;1.02;;;;;;;22.06;50.16;99724.50;340892;29;1068;-72
2022/07/14 00:51:42;;;;;;;3.10;1.10;;;;;;;22.06;50.54;99726.31;340828;29;1048;-72
2022/07/14 00:51:54;;;;;;;2.03;1.10;;;;;;;22.03;51.15;99730.03;341115;29;1309;-72
2022/07/14 00:52:06;;;;;;;1.38;1.10;;;;;;;22.04;50.15;99725.59;340309;28;1944;-73
2022/07/14 00:52:18;;;;;;;1.10;1.00;;;;;;;22.07;50.02;99725.34;341330;28;1798;-72
2022/07/14 00:52:31;;;;;;;2.58;1.00;;;;;;;22.03;50.43;99726.53;343106;28;1127;-72
2022/07/14 00:52:46;;;;;;;3.30;1.10;;;;;;;22.02;50.50;99727.53;343362;28;1051;-72
2022/07/14 00:53:06;;;;;;;2.25;1.05;;;;;;;21.97;51.00;99722.56;344284;28;1210;-73
2022/07/14 00:53:18;;;;;;;3.42;1.13;;;;;;;21.97;50.62;99725.22;344785;28;1689;-73
2022/07/14 00:53:30;;;;;;;5.60;1.20;;;;;;;21.96;51.21;99725.38;344902;28;1289;-73
2022/07/14 00:53:42;;;;;;;5.75;1.20;;;;;;;21.97;50.76;99724.38;345042;28;1050;-73
2022/07/14 00:53:57;;;;;;;4.53;1.10;;;;;;;21.98;50.34;99726.09;344403;28;1868;-72
2022/07/14 00:54:09;;;;;;;2.58;1.00;;;;;;;21.97;49.75;99730.50;344036;28;1790;-72
2022/07/14 00:54:25;;;;;;;2.88;1.10;;;;;;;22.00;49.48;99725.00;345227;28;944;-73
2022/07/14 00:54:37;;;;;;;2.03;1.00;;;;;;;22.02;49.39;99724.88;343625;28;1103;-73
2022/07/14 00:54:50;;;;;;;1.60;0.93;;;;;;;22.03;49.22;99729.19;343610;28;1106;-72
2022/07/14 00:55:04;;;;;;;1.67;1.00;;;;;;;22.03;49.05;99721.25;344444;28;1296;-73
2022/07/14 00:55:17;;;;;;;1.83;1.00;;;;;;;22.02;50.13;99728.34;344691;28;1687;-73
2022/07/14 00:55:29;;;;;;;1.73;1.10;;;;;;;22.02;49.11;99728.34;344694;28;1091;-73
2022/07/14 00:55:42;;;;;;;1.17;1.00;;;;;;;22.01;49.70;99720.53;344977;28;1600;-73
2022/07/14 00:55:54;;;;;;;2.00;1.00;;;;;;;22.00;50.08;99730.28;345045;28;1233;-73
2022/07/14 00:56:06;;;;;;;2.30;1.10;;;;;;;21.98;49.57;99731.38;343433;28;1939;-72
2022/07/14 00:56:18;;;;;;;1.95;1.08;;;;;;;21.98;49.80;99726.91;344820;28;1845;-72
2022/07/14 00:56:30;;;;;;;1.80;0.98;;;;;;;21.98;49.59;99728.72;344920;28;1127;-73
2022/07/14 00:56:42;;;;;;;2.17;1.10;;;;;;;21.99;49.36;99730.41;344632;28;1185;-73
2022/07/14 00:56:54;;;;;;;2.20;1.20;;;;;;;21.99;50.02;99728.59;343901;28;1823;-72
2022/07/14 00:57:06;;;;;;;2.10;1.15;;;;;;;22.00;49.59;99726.81;342710;28;2071;-72
2022/07/14 00:57:18;;;;;;;1.48;1.10;;;;;;;21.99;48.94;99728.59;342260;28;1903;-73
2022/07/14 00:57:30;;;;;;;2.88;1.05;;;;;;;21.97;48.93;99725.22;343565;28;1110;-72
2022/07/14 00:57:42;;;;;;;3.70;1.10;;;;;;;21.94;48.67;99728.97;342103;28;1871;-72
2022/07/14 00:57:54;;;;;;;2.97;1.10;;;;;;;21.92;48.37;99728.25;343710;28;1106;-72
2022/07/14 00:58:07;;;;;;;1.30;1.08;;;;;;;21.92;48.58;99730.88;342036;28;1891;-73
2022/07/14 00:58:19;;;;;;;1.23;0.90;;;;;;;21.92;48.89;99722.94;342899;28;1787;-74
2022/07/14 00:58:31;;;;;;;1.98;0.90;;;;;;;21.90;49.75;99730.16;341147;28;1255;-73
2022/07/14 00:58:43;;;;;;;1.90;0.90;;;;;;;21.87;49.67;99727.78;340987;29;1257;-73
2022/07/14 00:58:55;;;;;;;1.08;0.95;;;;;;;21.86;49.82;99726.06;340483;28;1191;-74
2022/07/14 00:59:07;;;;;;;1.20;0.90;;;;;;;21.85;49.91;99728.84;339788;28;1880;-73
2022/07/14 00:59:19;;;;;;;1.48;0.90;;;;;;;21.87;49.70;99734.84;341509;28;1515;-73
2022/07/14 00:59:31;;;;;;;2.22;1.08;;;;;;;21.88;49.92;99732.09;341617;28;2336;-73
2022/07/14 00:59:43;;;;;;;1.77;1.00;;;;;;;21.89;49.38;99728.50;341665;28;2094;-73
2022/07/14 00:59:56;;;;;;;2.97;0.98;;;;;;;21.91;49.10;99733.66;341439;28;1759;-74
2022/07/14 01:00:11;;;;;;;3.10;1.00;;;;;;;21.92;49.36;99733.53;342131;28;1214;-73
2022/07/14 01:00:23;;;;;;;1.83;0.90;;;;;;;21.92;50.19;99733.53;342134;28;1081;-73
2022/07/14 01:00:35;;;;;;;1.75;0.90;;;;;;;21.90;50.45;99729.34;342865;28;1290;-73
2022/07/14 01:00:47;;;;;;;2.60;1.10;;;;;;;21.88;50.11;99721.50;343608;28;1295;-73
2022/07/14 01:00:59;;;;;;;2.28;1.20;;;;;;;21.90;49.91;99730.16;343146;28;1218;-73
2022/07/14 01:01:11;;;;;;;2.75;1.20;;;;;;;21.91;49.83;99725.72;342628;28;1840;-74